Time;durP1;ratioP1;P1;durP2;ratioP2;P2;SDS_P1;SDS_P2;PMS_P1;PMS_P2;Temp;Humidity;BMP_temperature;BMP_pressure;BME280_temperature;BME280_humidity;BME280_pressure;Samples;Min_cycle;Max_cycle;Signal;HPM_P1;HPM_P2
2022/04/17 00:00:12;;;;;;;21.15;18.83;;;3.90;99.90;;;;;;5002388;28;20180;-54
2022/04/17 00:02:38;;;;;;;19.95;17.88;;;3.90;99.90;;;;;;4998474;28;20195;-51
2022/04/17 00:05:05;;;;;;;21.40;19.10;;;3.80;99.90;;;;;;4992403;28;20189;-51
2022/04/17 00:07:31;;;;;;;23.67;20.23;;;3.80;99.90;;;;;;4990090;28;20619;-50
2022/04/17 00:09:57;;;;;;;21.50;19.23;;;3.70;99.90;;;;;;5005190;28;20199;-54
2022/04/17 00:12:23;;;;;;;21.20;18.90;;;3.70;99.90;;;;;;4993877;28;20212;-53
2022/04/17 00:14:50;;;;;;;22.97;19.20;;;3.60;99.90;;;;;;4993696;28;20420;-55
2022/04/17 00:17:16;;;;;;;22.58;18.50;;;3.60;99.90;;;;;;4983953;28;20459;-53
2022/04/17 00:19:42;;;;;;;22.77;19.05;;;3.50;99.90;;;;;;4992333;28;20276;-51
2022/04/17 00:22:07;;;;;;;22.70;20.30;;;3.50;99.90;;;;;;4999655;28;20195;-52
2022/04/17 00:24:33;;;;;;;22.93;19.10;;;3.40;99.90;;;;;;5001293;28;20579;-51
2022/04/17 00:27:00;;;;;;;22.43;19.53;;;3.40;99.90;;;;;;4995909;28;20194;-53
2022/04/17 00:29:27;;;;;;;23.23;20.77;;;3.30;99.90;;;;;;4996382;28;20585;-52
2022/04/17 00:31:52;;;;;;;21.95;19.38;;;3.20;99.90;;;;;;4988498;28;20291;-53
2022/04/17 00:34:19;;;;;;;21.40;19.27;;;3.20;99.90;;;;;;5000266;28;20302;-51
2022/04/17 00:36:45;;;;;;;21.38;19.13;;;3.20;99.90;;;;;;4993543;28;20200;-49
2022/04/17 00:39:12;;;;;;;21.43;18.33;;;3.10;99.90;;;;;;4995301;28;20554;-52
2022/04/17 00:41:37;;;;;;;22.45;19.95;;;3.10;99.90;;;;;;4994169;28;20579;-51
2022/04/17 00:44:09;;;;;;;19.83;17.73;;;3.10;99.90;;;;;;4986519;28;20180;-52
2022/04/17 00:46:35;;;;;;;21.27;18.70;;;3.00;99.90;;;;;;4992950;28;20952;-52
2022/04/17 00:49:00;;;;;;;21.00;18.80;;;3.00;99.90;;;;;;4999740;28;20188;-52
2022/04/17 00:51:26;;;;;;;20.97;18.70;;;2.90;99.90;;;;;;4996283;28;20201;-50
2022/04/17 00:53:53;;;;;;;20.30;18.20;;;2.90;99.90;;;;;;4998381;28;20199;-49
2022/04/17 00:56:19;;;;;;;19.90;17.83;;;2.90;99.90;;;;;;5003467;28;20238;-52
2022/04/17 00:58:45;;;;;;;20.48;18.17;;;2.90;99.90;;;;;;4982951;28;20228;-51
2022/04/17 01:01:10;;;;;;;18.93;16.77;;;2.90;99.90;;;;;;4987169;28;20661;-53
2022/04/17 01:03:36;;;;;;;23.67;19.47;;;2.80;99.90;;;;;;4988345;28;20215;-52
2022/04/17 01:06:01;;;;;;;21.10;18.60;;;2.80;99.90;;;;;;4994082;28;20192;-53
2022/04/17 01:08:27;;;;;;;21.10;18.80;;;2.80;99.90;;;;;;4989135;28;20631;-50
2022/04/17 01:10:53;;;;;;;22.02;19.73;;;2.70;99.90;;;;;;5001458;28;20784;-51
2022/04/17 01:13:19;;;;;;;21.10;19.00;;;2.70;99.90;;;;;;4995645;28;20190;-49
2022/04/17 01:15:44;;;;;;;21.37;19.07;;;2.70;99.90;;;;;;5006123;28;20255;-51
2022/04/17 01:18:10;;;;;;;20.50;18.40;;;2.70;99.90;;;;;;4990751;28;20195;-48
2022/04/17 01:20:38;;;;;;;22.20;19.90;;;2.70;99.90;;;;;;4999085;28;20219;-54
2022/04/17 01:28:32;;;;;;;20.90;18.67;;;2.60;99.90;;;;;;4987451;28;20199;-52
2022/04/17 01:30:57;;;;;;;19.53;17.53;;;2.60;99.90;;;;;;4994585;28;20200;-52
2022/04/17 01:33:23;;;;;;;21.43;18.90;;;2.60;99.90;;;;;;4991875;28;20202;-51
2022/04/17 01:35:49;;;;;;;20.50;18.40;;;2.50;99.90;;;;;;4988186;28;20258;-50
2022/04/17 01:38:15;;;;;;;19.33;17.43;;;2.40;99.90;;;;;;4992002;28;20188;-53
2022/04/17 01:40:41;;;;;;;19.45;17.48;;;2.40;99.90;;;;;;4993088;28;20216;-54
2022/04/17 01:43:10;;;;;;;19.67;17.60;;;2.40;99.90;;;;;;4989507;28;20300;-51
2022/04/17 01:45:36;;;;;;;20.83;18.70;;;2.40;99.90;;;;;;4995869;28;20237;-55
2022/04/17 01:48:02;;;;;;;20.67;18.50;;;2.30;99.90;;;;;;5002850;28;20187;-53
2022/04/17 01:50:28;;;;;;;20.40;18.40;;;2.30;99.90;;;;;;4997324;28;20441;-50
2022/04/17 01:52:53;;;;;;;21.00;18.80;;;2.30;99.90;;;;;;4989567;28;20447;-51
2022/04/17 01:55:19;;;;;;;20.57;18.33;;;2.20;99.90;;;;;;4998554;28;20238;-53
2022/04/17 01:57:45;;;;;;;22.37;18.57;;;2.10;99.90;;;;;;4990702;28;20439;-52
2022/04/17 02:00:12;;;;;;;19.67;17.60;;;2.10;99.90;;;;;;4998711;28;20441;-49
2022/04/17 02:02:37;;;;;;;20.35;17.05;;;2.10;99.90;;;;;;4981805;28;20192;-54
2022/04/17 02:05:04;;;;;;;19.13;17.17;;;2.00;99.90;;;;;;4988778;28;20199;-51
2022/04/17 02:07:29;;;;;;;19.92;17.83;;;2.00;99.90;;;;;;4986600;28;20192;-51
2022/04/17 02:09:55;;;;;;;21.20;17.73;;;1.90;99.90;;;;;;4986329;28;20582;-56
2022/04/17 02:12:22;;;;;;;18.40;16.60;;;1.90;99.90;;;;;;4990156;28;20187;-55
2022/04/17 02:14:48;;;;;;;21.00;18.27;;;1.90;99.90;;;;;;4993431;28;20207;-52
2022/04/17 02:17:13;;;;;;;19.00;17.00;;;1.80;99.90;;;;;;4992850;28;20247;-54
2022/04/17 02:19:39;;;;;;;21.30;19.07;;;1.80;99.90;;;;;;4995360;28;20475;-49
2022/04/17 02:22:05;;;;;;;23.40;18.03;;;1.70;99.90;;;;;;4991745;28;20191;-52
2022/04/17 02:24:31;;;;;;;21.03;18.40;;;1.70;99.90;;;;;;4995013;28;20175;-52
2022/04/17 02:26:56;;;;;;;21.63;18.83;;;1.70;99.90;;;;;;5006035;28;20949;-53
2022/04/17 02:29:22;;;;;;;20.33;17.77;;;1.60;99.90;;;;;;4991946;28;20471;-55
2022/04/17 02:31:47;;;;;;;18.93;17.03;;;1.60;99.90;;;;;;4992255;28;20271;-54
2022/04/17 02:34:13;;;;;;;19.87;17.20;;;1.60;99.90;;;;;;4999966;28;20188;-51
2022/04/17 02:36:38;;;;;;;20.37;18.30;;;1.60;99.90;;;;;;5002691;28;20200;-51
2022/04/17 02:39:04;;;;;;;21.27;17.90;;;1.50;99.90;;;;;;4992379;28;20176;-54
2022/04/17 02:41:30;;;;;;;22.27;19.90;;;1.50;99.90;;;;;;4990318;28;20506;-50
2022/04/17 02:43:56;;;;;;;29.43;20.80;;;1.50;99.90;;;;;;4991340;28;20192;-52
2022/04/17 02:49:05;;;;;;;19.45;17.55;;;1.50;99.90;;;;;;4990796;28;20238;-55
2022/04/17 02:51:33;;;;;;;22.10;18.20;;;1.50;99.90;;;;;;4991503;28;20576;-52
2022/04/17 02:53:59;;;;;;;20.33;18.20;;;1.60;99.90;;;;;;4990369;28;20184;-53
2022/04/17 02:56:24;;;;;;;20.47;18.27;;;1.60;99.90;;;;;;4992628;28;20224;-55
2022/04/17 02:58:52;;;;;;;20.27;17.53;;;1.60;99.90;;;;;;4992531;28;20188;-51
2022/04/17 03:06:46;;;;;;;18.60;16.63;;;1.60;99.90;;;;;;4991549;28;20199;-52
2022/04/17 03:09:12;;;;;;;19.13;16.90;;;1.50;99.90;;;;;;4988103;28;20184;-53
2022/04/17 03:11:37;;;;;;;20.70;17.93;;;1.50;99.90;;;;;;4990657;28;20219;-55
2022/04/17 03:14:03;;;;;;;21.00;18.80;;;1.50;99.90;;;;;;4989863;28;20857;-51
2022/04/17 03:16:29;;;;;;;21.03;18.10;;;1.40;99.90;;;;;;4994613;28;20204;-51
2022/04/17 03:18:55;;;;;;;21.07;18.87;;;1.50;99.90;;;;;;4993348;28;20187;-50
2022/04/17 03:21:20;;;;;;;18.83;16.83;;;1.50;99.90;;;;;;4991718;28;20323;-53
2022/04/17 03:23:46;;;;;;;21.10;18.63;;;1.50;99.90;;;;;;4989993;28;20181;-53
2022/04/17 03:26:11;;;;;;;22.90;19.37;;;1.50;99.90;;;;;;4990805;28;20655;-53
2022/04/17 03:28:37;;;;;;;23.00;19.97;;;1.50;99.90;;;;;;4987480;28;20188;-51
2022/04/17 03:31:04;;;;;;;23.63;19.90;;;1.50;99.90;;;;;;4989941;28;20227;-52
2022/04/17 03:33:30;;;;;;;21.00;18.80;;;1.50;99.90;;;;;;4995535;28;20290;-50
2022/04/17 03:35:56;;;;;;;22.87;19.27;;;1.50;99.90;;;;;;4999164;28;20295;-50
2022/04/17 03:38:21;;;;;;;19.73;17.70;;;1.50;99.90;;;;;;4994473;28;20242;-54
2022/04/17 03:40:47;;;;;;;20.30;17.97;;;1.50;99.90;;;;;;5003221;28;20642;-52
2022/04/17 03:43:13;;;;;;;19.87;17.73;;;1.50;99.90;;;;;;5004045;28;20176;-48
2022/04/17 03:45:39;;;;;;;21.95;19.42;;;1.50;99.90;;;;;;5001008;28;20234;-51
2022/04/17 03:48:05;;;;;;;21.70;17.73;;;1.40;99.90;;;;;;4990046;28;20179;-53
2022/04/17 03:50:31;;;;;;;21.45;18.63;;;1.40;99.90;;;;;;4987470;28;20188;-51
2022/04/17 03:52:57;;;;;;;22.00;17.80;;;1.40;99.90;;;;;;4992091;28;20286;-52
2022/04/17 03:55:23;;;;;;;20.50;18.30;;;1.40;99.90;;;;;;4989148;28;20256;-51
2022/04/17 03:57:49;;;;;;;20.77;18.58;;;1.40;99.90;;;;;;4993744;28;20234;-48
2022/04/17 04:00:15;;;;;;;24.43;20.87;;;1.30;99.90;;;;;;5003773;28;20196;-50
2022/04/17 04:02:42;;;;;;;25.15;21.00;;;1.30;99.90;;;;;;4990241;28;20219;-52
2022/04/17 04:05:11;;;;;;;22.88;19.25;;;1.30;99.90;;;;;;5002340;28;20184;-49
2022/04/17 04:07:37;;;;;;;21.25;18.98;;;1.30;99.90;;;;;;4993712;28;20613;-53
2022/04/17 04:10:04;;;;;;;21.98;18.65;;;1.30;99.90;;;;;;5000403;28;20275;-51
2022/04/17 04:12:30;;;;;;;22.23;19.15;;;1.30;99.90;;;;;;5003474;28;20653;-49
2022/04/17 04:14:56;;;;;;;20.25;17.92;;;1.20;99.90;;;;;;4982650;28;20181;-49
2022/04/17 04:17:22;;;;;;;22.20;18.80;;;1.20;99.90;;;;;;4992037;28;20528;-53
2022/04/17 04:19:47;;;;;;;24.90;19.50;;;1.20;99.90;;;;;;4994549;28;20286;-52
2022/04/17 04:22:13;;;;;;;22.07;18.70;;;1.20;99.90;;;;;;4996505;28;20175;-51
2022/04/17 04:24:40;;;;;;;22.58;18.05;;;1.20;99.90;;;;;;4998463;28;20188;-49
2022/04/17 04:29:50;;;;;;;19.80;17.70;;;1.20;99.90;;;;;;5001354;28;20195;-48
2022/04/17 04:32:20;;;;;;;19.57;17.47;;;1.20;99.90;;;;;;4992317;28;20183;-55
2022/04/17 04:34:45;;;;;;;19.15;17.15;;;1.20;99.90;;;;;;4989893;28;20227;-49
2022/04/17 04:37:11;;;;;;;20.67;17.60;;;1.20;99.90;;;;;;4988101;28;20659;-53
2022/04/17 04:39:36;;;;;;;19.53;17.47;;;1.20;99.90;;;;;;4991786;28;20219;-51
2022/04/17 04:42:02;;;;;;;19.17;16.30;;;1.20;99.90;;;;;;4988391;28;20204;-54
2022/04/17 04:44:28;;;;;;;19.95;17.80;;;1.20;99.90;;;;;;4996372;28;20211;-52
2022/04/17 04:46:55;;;;;;;18.90;16.70;;;1.20;99.90;;;;;;4991333;28;20201;-48
2022/04/17 04:49:30;;;;;;;20.17;16.50;;;1.20;99.90;;;;;;5005759;28;20234;-51
2022/04/17 04:51:57;;;;;;;16.92;15.13;;;1.30;99.90;;;;;;5000040;28;20198;-52
2022/04/17 04:54:23;;;;;;;18.88;16.25;;;1.30;99.90;;;;;;4987297;28;20215;-50
2022/04/17 04:56:48;;;;;;;18.27;16.27;;;1.30;99.90;;;;;;4989417;28;20626;-51
2022/04/17 04:59:14;;;;;;;19.00;15.60;;;1.30;99.90;;;;;;5003972;28;20262;-50
2022/04/17 05:01:39;;;;;;;18.13;15.40;;;1.30;99.90;;;;;;4999481;28;20547;-51
2022/04/17 05:04:05;;;;;;;17.83;15.87;;;1.30;99.90;;;;;;4996795;28;20702;-49
2022/04/17 05:06:30;;;;;;;19.70;16.00;;;1.30;99.90;;;;;;4992813;28;20202;-52
2022/04/17 05:08:56;;;;;;;19.73;16.70;;;1.40;99.90;;;;;;4999096;28;20189;-54
2022/04/17 05:11:21;;;;;;;16.73;14.93;;;1.40;99.90;;;;;;4988769;28;20203;-51
2022/04/17 05:13:47;;;;;;;17.50;15.60;;;1.40;99.90;;;;;;4997468;28;20623;-51
2022/04/17 05:16:13;;;;;;;17.97;16.07;;;1.60;99.90;;;;;;4990976;28;20204;-47
2022/04/17 05:18:39;;;;;;;16.30;14.65;;;1.60;99.90;;;;;;5003569;28;20295;-52
2022/04/17 05:21:06;;;;;;;18.93;16.33;;;1.60;99.90;;;;;;4989594;28;20373;-50
2022/04/17 05:23:32;;;;;;;17.85;14.55;;;1.60;99.90;;;;;;5001386;28;20799;-53
2022/04/17 05:26:03;;;;;;;19.75;15.60;;;1.70;99.90;;;;;;4987668;28;20191;-54
2022/04/17 05:28:31;;;;;;;19.42;15.45;;;1.70;99.90;;;;;;4990939;28;20303;-52
2022/04/17 05:30:58;;;;;;;17.90;15.90;;;1.80;99.90;;;;;;4991794;28;20210;-49
2022/04/17 05:33:23;;;;;;;17.85;15.95;;;1.90;99.90;;;;;;4993809;28;20214;-52
2022/04/17 05:35:50;;;;;;;18.63;15.10;;;1.90;99.90;;;;;;4994747;28;20208;-47
2022/04/17 05:38:16;;;;;;;15.95;14.27;;;2.00;99.90;;;;;;4989118;28;20187;-51
2022/04/17 05:40:44;;;;;;;16.30;14.40;;;2.10;99.90;;;;;;4988737;28;20185;-54
2022/04/17 05:43:10;;;;;;;17.73;15.55;;;2.10;99.90;;;;;;4998141;28;20184;-55
2022/04/17 05:45:40;;;;;;;18.98;16.42;;;2.20;99.90;;;;;;4980240;28;20185;-54
2022/04/17 05:48:07;;;;;;;16.80;14.35;;;2.20;99.90;;;;;;4986149;28;20223;-52
2022/04/17 05:50:33;;;;;;;17.13;15.30;;;2.20;99.90;;;;;;4989880;28;20534;-50
2022/04/17 05:52:59;;;;;;;17.13;15.33;;;2.30;99.90;;;;;;4987332;28;20184;-50
2022/04/17 05:55:25;;;;;;;17.53;15.57;;;2.40;99.90;;;;;;4987145;28;20470;-53
2022/04/17 05:57:50;;;;;;;18.33;16.40;;;2.50;99.90;;;;;;4989889;28;20538;-49
2022/04/17 06:00:16;;;;;;;16.73;14.90;;;2.50;99.90;;;;;;4996552;28;20202;-51
2022/04/17 06:02:44;;;;;;;18.77;15.70;;;2.60;99.90;;;;;;4982495;28;20254;-51
2022/04/17 06:05:10;;;;;;;19.35;16.40;;;2.70;99.90;;;;;;4993122;28;20920;-48
2022/04/17 06:07:35;;;;;;;16.57;14.80;;;2.80;99.90;;;;;;4990575;28;20184;-49
2022/04/17 06:10:06;;;;;;;15.13;13.60;;;3.00;99.90;;;;;;4995762;28;20832;-47
2022/04/17 06:12:32;;;;;;;16.40;13.85;;;3.10;99.90;;;;;;4996466;28;20188;-54
2022/04/17 06:14:57;;;;;;;16.77;15.07;;;3.20;99.90;;;;;;4987113;28;20291;-51
2022/04/17 06:17:23;;;;;;;16.67;14.43;;;3.30;99.90;;;;;;4990677;28;20243;-48
2022/04/17 06:19:48;;;;;;;16.03;14.40;;;3.50;99.90;;;;;;4993795;28;20184;-51
2022/04/17 06:22:14;;;;;;;17.80;15.43;;;3.60;99.90;;;;;;4996566;28;20185;-53
2022/04/17 06:24:39;;;;;;;17.30;15.47;;;3.70;99.90;;;;;;4990878;28;20183;-52
2022/04/17 06:27:05;;;;;;;18.23;16.10;;;3.80;99.90;;;;;;4987902;28;20176;-55
2022/04/17 06:29:31;;;;;;;17.47;15.27;;;3.80;99.90;;;;;;4991269;28;20267;-49
2022/04/17 06:31:57;;;;;;;16.23;14.63;;;3.80;99.90;;;;;;4995105;28;20176;-50
2022/04/17 06:34:23;;;;;;;16.47;14.53;;;3.90;99.90;;;;;;4994559;28;20215;-53
2022/04/17 06:36:48;;;;;;;17.50;15.40;;;4.00;99.90;;;;;;4991009;28;20569;-53
2022/04/17 06:39:14;;;;;;;16.43;14.73;;;4.10;99.90;;;;;;5002675;28;20619;-53
2022/04/17 06:41:39;;;;;;;17.43;15.63;;;4.20;99.90;;;;;;4984555;28;20217;-51
2022/04/17 06:44:05;;;;;;;16.40;14.70;;;4.30;99.90;;;;;;4987489;28;20214;-53
2022/04/17 06:46:31;;;;;;;16.87;15.20;;;4.40;99.90;;;;;;4982976;28;20199;-50
2022/04/17 06:48:57;;;;;;;15.93;14.43;;;4.50;99.90;;;;;;4999857;28;20206;-53
2022/04/17 06:51:24;;;;;;;16.40;14.70;;;4.60;99.90;;;;;;4993109;28;20291;-54
2022/04/17 06:53:52;;;;;;;15.45;13.85;;;4.70;99.90;;;;;;4999288;28;21025;-50
2022/04/17 06:56:18;;;;;;;15.30;13.77;;;4.80;99.90;;;;;;4990888;28;20641;-52
2022/04/17 06:58:47;;;;;;;15.40;13.80;;;4.90;99.90;;;;;;4989809;28;20188;-52
2022/04/17 07:01:14;;;;;;;16.58;14.30;;;4.80;99.90;;;;;;4989568;28;20617;-54
2022/04/17 07:03:40;;;;;;;15.52;14.02;;;4.60;99.90;;;;;;4991002;28;20189;-53
2022/04/17 07:06:06;;;;;;;15.50;14.00;;;4.80;99.90;;;;;;4987337;28;20730;-53
2022/04/17 07:08:32;;;;;;;14.23;12.87;;;4.80;99.90;;;;;;4991411;28;20198;-50
2022/04/17 07:10:57;;;;;;;14.50;13.00;;;5.00;99.90;;;;;;4990664;28;20192;-54
2022/04/17 07:13:25;;;;;;;13.60;12.20;;;5.10;99.90;;;;;;4996877;28;20804;-50
2022/04/17 07:15:50;;;;;;;14.13;12.77;;;5.30;99.90;;;;;;4997470;28;20200;-53
2022/04/17 07:18:16;;;;;;;16.30;14.17;;;5.50;99.90;;;;;;4997241;28;20689;-55
2022/04/17 07:20:42;;;;;;;14.67;12.83;;;5.60;99.90;;;;;;4994213;28;20279;-51
2022/04/17 07:23:07;;;;;;;15.17;13.63;;;5.70;99.90;;;;;;5006399;28;20184;-56
2022/04/17 07:25:34;;;;;;;13.00;11.90;;;5.90;99.90;;;;;;4990650;28;20177;-53
2022/04/17 07:27:59;;;;;;;14.63;13.23;;;6.00;99.90;;;;;;4987249;28;20934;-51
2022/04/17 07:30:30;;;;;;;14.43;13.13;;;6.10;99.50;;;;;;4990287;28;20239;-53
2022/04/17 07:32:58;;;;;;;14.20;12.80;;;6.30;98.90;;;;;;5006574;28;20179;-53
2022/04/17 07:35:25;;;;;;;14.40;12.88;;;6.50;99.00;;;;;;5001482;28;20181;-51
2022/04/17 07:37:56;;;;;;;15.53;13.10;;;6.60;98.10;;;;;;4991842;28;20184;-54
2022/04/17 07:40:25;;;;;;;14.27;12.90;;;6.80;97.00;;;;;;4997876;28;20429;-53
2022/04/17 07:42:51;;;;;;;14.43;13.10;;;7.00;96.00;;;;;;4990995;28;20443;-54
2022/04/17 07:45:18;;;;;;;13.40;12.30;;;7.20;95.70;;;;;;5002097;28;20419;-55
2022/04/17 07:47:44;;;;;;;13.23;12.03;;;7.40;94.60;;;;;;4994207;28;20743;-56
2022/04/17 07:50:17;;;;;;;14.10;12.80;;;7.50;94.60;;;;;;4999311;28;20424;-54
2022/04/17 07:52:43;;;;;;;14.47;13.07;;;7.60;94.40;;;;;;4986392;28;20455;-54
2022/04/17 07:55:11;;;;;;;13.23;12.03;;;7.90;91.50;;;;;;5011225;28;21250;-54
2022/04/17 08:00:23;;;;;;;14.53;13.03;;;8.10;88.00;;;;;;4987308;28;20849;-53
2022/04/17 08:02:53;;;;;;;15.30;13.90;;;8.20;88.50;;;;;;4993063;28;20432;-52
2022/04/17 08:05:20;;;;;;;14.07;12.77;;;8.40;89.20;;;;;;5011382;28;20509;-53
2022/04/17 08:07:46;;;;;;;13.50;12.30;;;8.60;88.00;;;;;;5000401;28;20484;-53
2022/04/17 08:10:11;;;;;;;13.87;12.67;;;8.70;84.50;;;;;;5010946;28;20453;-53
2022/04/17 08:12:37;;;;;;;14.87;13.33;;;8.90;83.10;;;;;;4997871;28;20196;-52
2022/04/17 08:15:03;;;;;;;13.43;11.93;;;9.10;79.50;;;;;;4986051;28;20193;-51
2022/04/17 08:17:28;;;;;;;13.17;12.00;;;9.20;81.40;;;;;;4997223;28;20573;-48
2022/04/17 08:19:54;;;;;;;13.07;11.97;;;9.40;78.40;;;;;;5003558;28;20482;-51
2022/04/17 08:22:20;;;;;;;12.77;11.60;;;9.50;77.60;;;;;;4991353;28;20195;-52
2022/04/17 08:24:46;;;;;;;13.00;11.70;;;9.70;76.90;;;;;;4991959;28;20203;-54
2022/04/17 08:27:12;;;;;;;77.43;69.43;;;9.90;71.80;;;;;;4997456;28;20250;-51
2022/04/17 08:29:37;;;;;;;19.83;17.93;;;10.10;70.80;;;;;;4999615;28;20451;-54
2022/04/17 08:32:03;;;;;;;45.73;34.13;;;10.20;71.40;;;;;;4991151;28;20611;-53
2022/04/17 08:34:28;;;;;;;15.57;14.10;;;10.30;70.50;;;;;;4991622;28;20204;-54
2022/04/17 08:36:54;;;;;;;12.23;11.27;;;10.60;68.70;;;;;;4989630;28;20526;-56
2022/04/17 08:39:20;;;;;;;10.90;9.90;;;10.80;69.10;;;;;;4991142;28;20184;-50
2022/04/17 08:41:47;;;;;;;11.37;10.40;;;11.10;68.20;;;;;;4987791;28;20443;-53
2022/04/17 08:44:13;;;;;;;13.67;12.47;;;11.40;65.20;;;;;;4990305;28;20627;-51
2022/04/17 08:46:40;;;;;;;13.37;12.17;;;11.80;60.00;;;;;;4991271;28;20419;-53
2022/04/17 08:49:08;;;;;;;13.27;12.07;;;12.00;58.20;;;;;;4989625;28;20534;-49
2022/04/17 08:51:35;;;;;;;12.37;11.23;;;12.30;58.10;;;;;;4990907;28;20754;-54
2022/04/17 08:54:02;;;;;;;13.20;12.03;;;12.60;55.40;;;;;;4991012;28;20468;-53
2022/04/17 08:56:28;;;;;;;11.30;10.40;;;12.90;53.90;;;;;;4990578;28;20985;-53
2022/04/17 08:58:54;;;;;;;11.97;10.97;;;12.90;51.60;;;;;;4990843;28;20408;-52
2022/04/17 09:01:19;;;;;;;10.50;9.50;;;12.90;52.50;;;;;;4988892;28;20185;-53
2022/04/17 09:03:48;;;;;;;11.27;10.27;;;13.30;51.10;;;;;;4991172;28;20396;-48
2022/04/17 09:06:19;;;;;;;12.80;11.60;;;13.60;53.00;;;;;;4989419;28;20327;-50
2022/04/17 09:09:00;;;;;;;10.00;9.20;;;13.80;52.50;;;;;;4990938;28;20411;-54
2022/04/17 09:11:28;;;;;;;9.60;8.87;;;14.50;50.40;;;;;;4990713;28;20498;-52
2022/04/17 09:13:58;;;;;;;9.87;9.10;;;15.10;48.40;;;;;;4990507;28;20415;-54
2022/04/17 09:16:29;;;;;;;8.87;8.07;;;15.70;46.40;;;;;;4988128;28;20979;-53
2022/04/17 09:18:56;;;;;;;6.80;6.33;;;16.30;45.30;;;;;;4990393;28;20477;-50
2022/04/17 09:21:35;;;;;;;5.97;5.57;;;16.50;41.40;;;;;;4989151;28;20497;-52
2022/04/17 09:24:17;;;;;;;5.93;5.53;;;16.80;38.00;;;;;;4990548;28;20399;-55
2022/04/17 09:26:56;;;;;;;7.97;7.30;;;16.70;37.50;;;;;;4987679;28;20500;-54
2022/04/17 09:29:27;;;;;;;6.10;5.70;;;16.80;36.90;;;;;;4990297;28;20461;-55
2022/04/17 09:31:58;;;;;;;5.07;4.77;;;17.00;35.20;;;;;;4988206;28;20467;-49
2022/04/17 09:34:25;;;;;;;5.13;4.80;;;17.20;35.20;;;;;;4990380;28;20415;-51
2022/04/17 09:37:00;;;;;;;5.57;5.17;;;17.30;34.20;;;;;;4985228;28;20502;-54
2022/04/17 09:39:35;;;;;;;5.30;4.97;;;17.10;34.80;;;;;;4970886;28;20412;-49
2022/04/17 09:42:03;;;;;;;5.60;5.20;;;16.90;33.60;;;;;;4970971;28;20427;-52
2022/04/17 09:44:38;;;;;;;5.80;5.40;;;16.70;33.50;;;;;;4970672;28;20415;-53
2022/04/17 09:47:06;;;;;;;5.00;4.70;;;16.40;32.80;;;;;;4975767;28;20438;-50
2022/04/17 09:49:50;;;;;;;5.60;5.20;;;16.40;33.80;;;;;;4987027;28;20541;-52
2022/04/17 09:52:16;;;;;;;5.53;5.23;;;16.70;34.20;;;;;;4990137;28;20534;-55
2022/04/17 09:54:42;;;;;;;7.20;5.07;;;17.40;35.10;;;;;;4989628;28;20494;-51
2022/04/17 09:57:08;;;;;;;5.47;4.97;;;18.00;35.00;;;;;;4988523;28;20203;-55
2022/04/17 09:59:36;;;;;;;5.90;5.50;;;18.60;32.70;;;;;;4989741;28;20439;-55
2022/04/17 10:02:02;;;;;;;5.90;5.50;;;19.70;30.60;;;;;;4987517;28;20443;-53
2022/04/17 10:04:28;;;;;;;5.70;5.30;;;20.20;30.00;;;;;;4989938;28;20470;-52
2022/04/17 10:06:59;;;;;;;5.67;5.33;;;20.90;28.10;;;;;;4986756;28;20833;-55
2022/04/17 10:09:25;;;;;;;9.17;7.00;;;21.90;28.30;;;;;;4990211;28;20882;-55
2022/04/17 10:11:51;;;;;;;5.67;5.27;;;22.60;26.00;;;;;;4989359;28;20423;-51
2022/04/17 10:14:17;;;;;;;5.60;5.30;;;22.90;26.50;;;;;;4989224;28;20440;-53
2022/04/17 10:16:46;;;;;;;5.87;5.57;;;23.20;26.30;;;;;;4988563;28;20470;-56
2022/04/17 10:19:13;;;;;;;6.10;5.60;;;23.40;25.60;;;;;;4987744;28;20458;-52
2022/04/17 10:21:39;;;;;;;5.87;5.47;;;23.50;24.70;;;;;;4989837;28;20412;-55
2022/04/17 10:24:07;;;;;;;5.40;5.10;;;24.00;24.40;;;;;;5007023;28;20431;-52
2022/04/17 10:26:37;;;;;;;5.97;5.47;;;24.50;23.80;;;;;;5009219;28;20742;-51
2022/04/17 10:29:06;;;;;;;5.70;5.30;;;24.60;23.10;;;;;;4993858;28;20489;-55
2022/04/17 10:32:03;;;;;;;5.43;5.03;;;24.80;23.10;;;;;;4993366;28;20438;-50
2022/04/17 10:35:05;;;;;;;5.53;5.13;;;24.70;22.80;;;;;;4995409;28;20445;-52
2022/04/17 10:38:00;;;;;;;5.40;5.10;;;24.70;22.50;;;;;;5011343;28;20471;-54
2022/04/17 10:40:27;;;;;;;5.43;5.13;;;25.10;22.70;;;;;;4999552;28;20429;-56
2022/04/17 10:43:02;;;;;;;5.40;5.10;;;25.20;21.80;;;;;;5007404;28;20891;-55
2022/04/17 10:45:31;;;;;;;5.67;5.27;;;24.70;22.00;;;;;;5008407;28;20450;-55
2022/04/17 10:48:05;;;;;;;5.47;5.07;;;24.80;22.50;;;;;;5009995;28;20517;-52
2022/04/17 10:50:50;;;;;;;5.10;4.80;;;25.00;22.00;;;;;;5007979;28;20420;-53
2022/04/17 10:53:29;;;;;;;5.80;5.50;;;24.20;21.90;;;;;;5003013;28;20440;-55
2022/04/17 10:56:04;;;;;;;5.70;5.30;;;24.30;23.40;;;;;;5012557;28;20480;-48
2022/04/17 10:58:35;;;;;;;4.90;4.60;;;24.80;22.20;;;;;;4999962;28;20519;-53
2022/04/17 11:01:01;;;;;;;5.17;4.87;;;24.90;23.30;;;;;;5006274;28;20409;-55
2022/04/17 11:03:27;;;;;;;5.10;4.80;;;25.00;21.60;;;;;;5005355;28;20435;-50
2022/04/17 11:06:09;;;;;;;5.90;5.60;;;25.40;21.70;;;;;;5012456;28;20604;-53
2022/04/17 11:08:57;;;;;;;4.87;4.67;;;25.30;20.80;;;;;;4992865;28;20188;-53
2022/04/17 11:11:33;;;;;;;5.50;5.20;;;25.40;21.60;;;;;;5002807;28;20422;-54
2022/04/17 11:14:19;;;;;;;4.90;4.67;;;25.80;20.70;;;;;;5002623;28;20445;-52
2022/04/17 11:16:50;;;;;;;5.40;5.10;;;26.10;19.20;;;;;;4992474;28;20963;-53
2022/04/17 11:19:24;;;;;;;5.20;4.90;;;26.10;18.50;;;;;;4992400;28;20444;-54
2022/04/17 11:21:56;;;;;;;5.10;4.80;;;25.30;18.90;;;;;;4993186;28;20429;-52
2022/04/17 11:24:22;;;;;;;5.17;4.87;;;25.50;19.40;;;;;;5009278;28;20431;-54
2022/04/17 11:27:06;;;;;;;6.20;5.80;;;25.70;19.00;;;;;;5003457;28;20437;-53
2022/04/17 11:29:48;;;;;;;5.73;5.33;;;25.20;20.40;;;;;;4994584;28;20495;-52
2022/04/17 11:32:16;;;;;;;5.10;4.80;;;25.50;20.60;;;;;;4991900;28;20449;-51
2022/04/17 11:34:53;;;;;;;5.60;5.30;;;24.50;19.50;;;;;;5005637;28;20501;-53
2022/04/17 11:37:19;;;;;;;4.80;4.60;;;24.30;21.20;;;;;;5002142;28;20577;-50
2022/04/17 11:39:45;;;;;;;5.20;4.90;;;24.40;21.50;;;;;;4990904;28;20526;-48
2022/04/17 11:42:11;;;;;;;5.27;4.97;;;24.60;21.50;;;;;;4997478;28;20508;-52
2022/04/17 11:44:40;;;;;;;5.30;5.00;;;24.40;21.10;;;;;;4998901;28;20508;-47
2022/04/17 11:47:07;;;;;;;5.43;5.13;;;24.20;22.00;;;;;;5005596;28;20189;-53
2022/04/17 11:49:42;;;;;;;5.33;5.03;;;24.40;21.90;;;;;;5002980;28;21315;-53
2022/04/17 11:52:11;;;;;;;5.30;4.90;;;25.00;21.60;;;;;;5011804;28;21417;-51
2022/04/17 11:54:36;;;;;;;5.03;4.73;;;25.20;21.50;;;;;;4999260;28;20429;-54
2022/04/17 11:57:02;;;;;;;5.07;4.70;;;25.20;20.90;;;;;;5009674;28;20951;-51
2022/04/17 11:59:28;;;;;;;5.70;5.30;;;25.60;20.50;;;;;;4990751;28;20684;-51
2022/04/17 12:02:09;;;;;;;5.27;4.97;;;25.30;21.00;;;;;;5008375;28;20281;-50
2022/04/17 12:04:36;;;;;;;5.27;5.07;;;25.30;20.80;;;;;;4998417;28;20262;-50
2022/04/17 12:07:02;;;;;;;5.07;4.87;;;25.30;20.80;;;;;;5010152;28;20465;-53
2022/04/17 12:09:28;;;;;;;5.03;4.83;;;25.60;20.10;;;;;;4991037;28;20873;-46
2022/04/17 12:11:53;;;;;;;5.53;5.23;;;25.70;21.20;;;;;;5008400;28;20205;-52
2022/04/17 12:14:32;;;;;;;6.33;6.03;;;26.10;20.50;;;;;;5009324;28;20646;-49
2022/04/17 12:16:58;;;;;;;5.40;5.10;;;26.80;19.90;;;;;;5011223;28;20234;-51
2022/04/17 12:19:27;;;;;;;5.20;4.90;;;27.40;18.90;;;;;;5010078;28;20423;-49
2022/04/17 12:21:53;;;;;;;5.63;5.33;;;26.30;19.50;;;;;;4998829;28;20508;-48
2022/04/17 12:24:19;;;;;;;5.20;4.90;;;25.30;20.60;;;;;;5011264;28;20434;-53
2022/04/17 12:26:46;;;;;;;5.20;4.90;;;25.10;20.90;;;;;;5010866;28;20959;-48
2022/04/17 12:29:12;;;;;;;5.40;5.10;;;24.50;21.60;;;;;;4990059;28;20788;-52
2022/04/17 12:31:38;;;;;;;5.33;5.03;;;24.10;21.70;;;;;;4993200;28;20453;-52
2022/04/17 12:34:19;;;;;;;5.07;4.77;;;23.40;22.10;;;;;;5011014;28;20591;-51
2022/04/17 12:36:48;;;;;;;5.47;5.17;;;23.80;21.80;;;;;;5010150;28;20427;-52
2022/04/17 12:39:15;;;;;;;5.70;5.40;;;24.40;21.30;;;;;;4999051;28;20491;-50
2022/04/17 12:41:42;;;;;;;4.73;4.53;;;25.10;21.20;;;;;;5009419;28;20441;-51
2022/04/17 12:44:09;;;;;;;5.50;5.20;;;25.20;21.00;;;;;;5009129;28;20440;-50
2022/04/17 12:46:44;;;;;;;5.57;5.27;;;24.80;20.60;;;;;;4993794;28;20517;-51
2022/04/17 12:49:11;;;;;;;5.23;4.93;;;24.10;20.80;;;;;;5000484;28;20424;-49
2022/04/17 12:51:54;;;;;;;5.50;5.20;;;23.50;21.50;;;;;;5010373;28;20481;-49
2022/04/17 12:54:20;;;;;;;5.80;5.47;;;22.30;22.40;;;;;;4994548;28;20497;-52
2022/04/17 12:56:47;;;;;;;5.93;5.53;;;21.50;23.20;;;;;;4993004;28;20521;-51
2022/04/17 12:59:18;;;;;;;6.23;5.73;;;21.40;24.30;;;;;;4997694;28;20190;-48